createdAt,value
2023-05-21T00:01:06.552Z,11.88
2023-05-21T00:03:36.231Z,13.18
2023-05-21T00:06:09.454Z,12.13
2023-05-21T00:09:04.706Z,11.50
2023-05-21T00:11:40.822Z,12.93
2023-05-21T00:14:27.916Z,12.07
2023-05-21T00:19:39.996Z,13.02
2023-05-21T00:22:10.519Z,13.75
2023-05-21T00:24:39.014Z,11.45
2023-05-21T00:27:12.545Z,13.32
2023-05-21T00:29:44.998Z,14.15
2023-05-21T00:32:14.684Z,12.23
2023-05-21T00:34:44.396Z,15.10
2023-05-21T00:37:15.322Z,13.70
2023-05-21T00:39:43.894Z,13.30
2023-05-21T00:42:18.349Z,14.07
2023-05-21T00:44:48.536Z,14.18
2023-05-21T00:47:18.449Z,13.02
2023-05-21T00:49:48.390Z,14.65
2023-05-21T00:52:20.449Z,13.05
2023-05-21T00:54:49.400Z,12.85
2023-05-21T00:57:21.309Z,13.30
2023-05-21T00:59:51.888Z,12.60
2023-05-21T01:02:24.350Z,12.68
2023-05-21T01:04:53.642Z,13.73
2023-05-21T01:07:22.311Z,12.57
2023-05-21T01:09:50.945Z,13.13
2023-05-21T01:12:22.407Z,12.80
2023-05-21T01:14:52.509Z,13.00
2023-05-21T01:17:24.534Z,12.75
2023-05-21T01:19:54.780Z,11.77
2023-05-21T01:22:24.966Z,13.23
2023-05-21T01:24:55.756Z,13.73
2023-05-21T01:27:24.712Z,12.45
2023-05-21T01:29:53.509Z,13.43
2023-05-21T01:32:28.402Z,12.65
2023-05-21T01:35:01.888Z,12.57
2023-05-21T01:37:33.060Z,11.47
2023-05-21T01:40:07.475Z,12.70
2023-05-21T01:42:40.152Z,12.17
2023-05-21T01:45:09.801Z,12.35
2023-05-21T01:47:38.820Z,12.60
2023-05-21T01:50:07.997Z,11.87
2023-05-21T01:52:36.830Z,11.80
2023-05-21T01:55:07.117Z,12.20
2023-05-21T01:57:35.780Z,12.83
2023-05-21T02:00:06.099Z,12.97
2023-05-21T02:02:44.259Z,11.87
2023-05-21T02:05:16.059Z,12.83
2023-05-21T02:07:45.545Z,12.90
2023-05-21T02:10:15.963Z,14.20
2023-05-21T02:12:46.123Z,11.30
2023-05-21T02:15:18.256Z,11.80
2023-05-21T02:17:47.113Z,13.13
2023-05-21T02:20:15.829Z,13.73
2023-05-21T02:22:45.269Z,12.37
2023-05-21T02:25:15.895Z,13.60
2023-05-21T02:27:46.726Z,13.93
2023-05-21T02:30:16.059Z,12.20
2023-05-21T02:32:45.086Z,13.30
2023-05-21T02:35:14.537Z,12.33
2023-05-21T02:37:44.180Z,12.37
2023-05-21T02:40:15.891Z,14.00
2023-05-21T02:42:44.510Z,12.23
2023-05-21T02:45:18.084Z,11.75
2023-05-21T02:47:46.675Z,11.73
2023-05-21T02:50:19.040Z,12.80
2023-05-21T02:52:56.934Z,13.53
2023-05-21T02:55:26.812Z,14.73
2023-05-21T02:57:55.516Z,13.80
2023-05-21T03:00:24.097Z,12.93
2023-05-21T03:02:52.740Z,12.63
2023-05-21T03:05:21.951Z,13.37
2023-05-21T03:07:51.509Z,13.43
2023-05-21T03:10:20.114Z,13.30
2023-05-21T03:12:53.825Z,14.00
2023-05-21T03:15:24.010Z,12.60
2023-05-21T03:17:54.198Z,13.47
2023-05-21T03:20:22.995Z,14.07
2023-05-21T03:22:53.087Z,13.50
2023-05-21T03:25:25.253Z,13.13
2023-05-21T03:27:56.960Z,13.23
2023-05-21T03:30:55.062Z,13.07
2023-05-21T03:33:42.030Z,13.37
2023-05-21T03:36:21.721Z,13.57
2023-05-21T03:38:50.203Z,12.63
2023-05-21T03:41:18.779Z,11.07
2023-05-21T03:43:53.742Z,12.60
2023-05-21T03:46:26.312Z,11.67
2023-05-21T03:48:58.224Z,12.30
2023-05-21T03:51:28.006Z,11.60
2023-05-21T03:53:57.122Z,12.50
2023-05-21T03:56:26.601Z,11.93
2023-05-21T03:58:56.598Z,12.33
2023-05-21T04:01:28.458Z,12.23
2023-05-21T04:03:58.431Z,12.63
2023-05-21T04:06:30.256Z,12.17
2023-05-21T04:08:58.990Z,12.53
2023-05-21T04:11:28.279Z,12.27
2023-05-21T04:13:59.126Z,11.30
2023-05-21T04:16:27.733Z,11.93
2023-05-21T04:18:56.511Z,11.37
2023-05-21T04:21:29.617Z,10.70
2023-05-21T04:24:00.924Z,11.23
2023-05-21T04:26:53.372Z,10.73
2023-05-21T04:29:23.439Z,11.00
2023-05-21T04:31:52.218Z,10.43
2023-05-21T04:34:22.896Z,10.93
2023-05-21T04:36:52.074Z,11.23
2023-05-21T04:39:20.586Z,10.33
2023-05-21T04:41:50.850Z,10.87
2023-05-21T04:44:20.630Z,10.43
2023-05-21T04:46:50.907Z,11.03
2023-05-21T04:49:21.631Z,10.63
2023-05-21T04:51:53.270Z,10.03
2023-05-21T04:54:22.163Z,10.07
2023-05-21T04:56:52.727Z,9.53
2023-05-21T04:59:22.950Z,10.33
2023-05-21T05:01:55.183Z,10.17
2023-05-21T05:04:24.042Z,10.17
2023-05-21T05:06:52.799Z,10.53
2023-05-21T05:09:24.151Z,11.30
2023-05-21T05:11:53.018Z,10.80
2023-05-21T05:14:21.568Z,9.73
2023-05-21T05:16:50.191Z,11.13
2023-05-21T05:19:20.574Z,9.83
2023-05-21T05:21:50.501Z,10.33
2023-05-21T05:24:19.961Z,9.80
2023-05-21T05:26:48.811Z,9.17
2023-05-21T05:29:17.692Z,10.53
2023-05-21T05:31:46.450Z,10.90
2023-05-21T05:34:17.103Z,10.13
2023-05-21T05:36:47.075Z,10.30
2023-05-21T05:39:15.749Z,10.53
2023-05-21T05:41:44.444Z,9.97
2023-05-21T05:44:13.278Z,10.00
2023-05-21T05:46:42.300Z,10.23
2023-05-21T05:49:11.128Z,10.00
2023-05-21T05:51:41.538Z,9.83
2023-05-21T05:54:11.557Z,9.33
2023-05-21T05:56:40.059Z,10.27
2023-05-21T05:59:08.659Z,9.67
2023-05-21T06:01:40.168Z,9.97
2023-05-21T06:04:09.195Z,9.13
2023-05-21T06:06:38.872Z,9.47
2023-05-21T06:09:08.026Z,9.30
2023-05-21T06:11:38.195Z,9.68
2023-05-21T06:14:06.872Z,9.20
2023-05-21T06:16:35.512Z,9.63
2023-05-21T06:19:04.582Z,9.33
2023-05-21T06:21:34.410Z,9.30
2023-05-21T06:24:11.594Z,8.50
2023-05-21T06:27:04.978Z,8.93
2023-05-21T06:29:36.307Z,8.77
2023-05-21T06:32:06.202Z,9.35
2023-05-21T06:34:34.789Z,7.97
2023-05-21T06:37:03.379Z,8.77
2023-05-21T06:39:31.942Z,8.20
2023-05-21T06:42:01.038Z,8.98
2023-05-21T06:44:56.861Z,9.27
2023-05-21T06:47:32.947Z,9.05
2023-05-21T06:50:01.657Z,8.82
2023-05-21T06:52:31.823Z,9.15
2023-05-21T06:55:06.417Z,7.95
2023-05-21T06:57:54.916Z,8.50
2023-05-21T07:00:25.202Z,8.10
2023-05-21T07:02:57.454Z,8.75
2023-05-21T07:05:27.303Z,8.20
2023-05-21T07:07:56.875Z,7.90
2023-05-21T07:10:34.474Z,8.43
2023-05-21T07:24:28.700Z,7.15
2023-05-21T07:26:57.367Z,7.38
2023-05-21T07:29:27.958Z,7.03
2023-05-21T07:32:03.120Z,6.93
2023-05-21T07:34:40.083Z,6.53
2023-05-21T07:37:09.003Z,7.32
2023-05-21T07:39:39.020Z,6.60
2023-05-21T07:42:12.953Z,7.07
2023-05-21T07:44:42.884Z,6.68
2023-05-21T07:47:13.180Z,6.68
2023-05-21T07:49:41.805Z,6.88
2023-05-21T07:52:10.846Z,6.80
2023-05-21T07:54:41.029Z,6.95
2023-05-21T07:57:10.242Z,6.93
2023-05-21T08:00:08.661Z,6.57
2023-05-21T08:02:43.983Z,7.05
2023-05-21T08:05:16.620Z,6.13
2023-05-21T08:07:46.332Z,6.88
2023-05-21T08:10:18.555Z,6.68
2023-05-21T08:12:51.285Z,6.25
2023-05-21T08:15:20.569Z,6.28
2023-05-21T08:17:49.760Z,6.82
2023-05-21T08:20:23.890Z,6.82
2023-05-21T08:22:53.533Z,6.70
2023-05-21T08:26:01.571Z,6.38
2023-05-21T08:29:01.402Z,6.47
2023-05-21T08:31:32.679Z,6.70
2023-05-21T08:34:02.323Z,6.55
2023-05-21T08:39:51.679Z,6.38
2023-05-21T08:43:06.023Z,6.63
2023-05-21T08:45:44.316Z,6.53
2023-05-21T08:48:13.917Z,6.60
2023-05-21T08:50:43.085Z,6.53
2023-05-21T08:53:27.135Z,6.03
2023-05-21T08:55:58.343Z,6.28
2023-05-21T08:58:51.694Z,6.78
2023-05-21T09:01:27.352Z,6.70
2023-05-21T09:04:19.770Z,6.30
2023-05-21T09:06:55.002Z,6.55
2023-05-21T09:09:41.704Z,6.65
2023-05-21T09:12:10.358Z,6.28
2023-05-21T09:14:45.620Z,7.05
2023-05-21T09:18:08.502Z,6.85
2023-05-21T09:21:23.301Z,7.15
2023-05-21T09:23:57.113Z,6.18
2023-05-21T09:26:26.588Z,6.57
2023-05-21T09:29:00.245Z,5.90
2023-05-21T09:31:29.359Z,6.32
2023-05-21T09:34:27.244Z,6.15
2023-05-21T09:37:06.524Z,6.43
2023-05-21T09:39:37.830Z,6.10
2023-05-21T09:42:06.508Z,6.32
2023-05-21T09:44:36.630Z,6.60
2023-05-21T09:47:05.907Z,6.18
2023-05-21T09:49:34.477Z,6.05
2023-05-21T09:52:05.897Z,6.40
2023-05-21T09:54:36.500Z,6.20
2023-05-21T09:57:08.382Z,6.80
2023-05-21T09:59:41.183Z,7.00
2023-05-21T10:02:18.548Z,6.20
2023-05-21T10:04:50.392Z,5.78
2023-05-21T10:07:26.268Z,6.07
2023-05-21T10:10:05.232Z,6.50
2023-05-21T10:12:35.592Z,5.82
2023-05-21T10:15:25.723Z,6.50
2023-05-21T10:17:54.744Z,6.18
2023-05-21T10:20:24.204Z,6.07
2023-05-21T10:22:54.872Z,6.00
2023-05-21T10:25:23.873Z,6.18
2023-05-21T10:27:53.985Z,5.63
2023-05-21T10:30:29.741Z,5.78
2023-05-21T10:32:58.835Z,5.47
2023-05-21T10:35:28.086Z,5.68
2023-05-21T10:38:06.233Z,5.75
2023-05-21T10:40:42.960Z,5.30
2023-05-21T10:43:27.979Z,5.82
2023-05-21T10:46:07.754Z,5.93
2023-05-21T10:48:43.481Z,5.25
2023-05-21T10:51:21.225Z,5.75
2023-05-21T10:54:07.678Z,5.78
2023-05-21T10:56:41.660Z,5.80
2023-05-21T10:59:22.390Z,6.18
2023-05-21T11:01:53.160Z,6.28
2023-05-21T11:04:24.166Z,5.72
2023-05-21T11:06:55.088Z,6.35
2023-05-21T11:09:23.697Z,6.07
2023-05-21T11:11:54.387Z,5.70
2023-05-21T11:14:39.681Z,5.95
2023-05-21T11:17:13.473Z,6.32
2023-05-21T11:19:43.877Z,6.57
2023-05-21T11:22:22.797Z,5.10
2023-05-21T11:24:52.311Z,6.20
2023-05-21T11:27:38.324Z,6.40
2023-05-21T11:30:08.727Z,6.13
2023-05-21T11:32:41.278Z,6.10
2023-05-21T11:35:16.151Z,5.53
2023-05-21T11:37:46.581Z,5.97
2023-05-21T11:40:19.540Z,6.05
2023-05-21T11:42:52.968Z,5.80
2023-05-21T11:45:21.839Z,6.20
2023-05-21T11:47:55.305Z,6.00
2023-05-21T11:50:30.983Z,6.03
2023-05-21T11:53:03.674Z,6.82
2023-05-21T11:55:33.200Z,5.80
2023-05-21T11:58:03.752Z,5.60
2023-05-21T12:00:34.479Z,5.93
2023-05-21T12:03:03.357Z,6.45
2023-05-21T12:05:32.910Z,6.50
2023-05-21T12:08:02.234Z,5.88
2023-05-21T12:10:30.811Z,6.45
2023-05-21T12:12:59.620Z,6.78
2023-05-21T12:15:29.909Z,6.45
2023-05-21T12:17:58.590Z,6.55
2023-05-21T12:20:30.577Z,6.57
2023-05-21T12:23:00.778Z,6.53
2023-05-21T12:25:30.519Z,6.47
2023-05-21T12:28:01.446Z,6.43
2023-05-21T12:30:33.353Z,6.78
2023-05-21T12:33:12.335Z,6.47
2023-05-21T12:35:40.982Z,6.70
2023-05-21T12:38:09.828Z,6.68
2023-05-21T12:40:39.937Z,6.80
2023-05-21T12:43:14.162Z,6.60
2023-05-21T12:45:47.487Z,5.97
2023-05-21T12:48:16.918Z,6.22
2023-05-21T12:50:45.772Z,6.07
2023-05-21T12:53:14.392Z,6.50
2023-05-21T12:55:44.283Z,6.88
2023-05-21T12:58:15.504Z,6.78
2023-05-21T13:00:46.035Z,6.03
2023-05-21T13:03:15.014Z,6.10
2023-05-21T13:05:43.649Z,5.85
2023-05-21T13:08:14.205Z,5.85
2023-05-21T13:10:43.798Z,5.63
2023-05-21T13:13:12.230Z,6.00
2023-05-21T13:15:41.097Z,5.38
2023-05-21T13:18:12.358Z,5.30
2023-05-21T13:20:40.980Z,5.30
2023-05-21T13:23:11.425Z,5.65
2023-05-21T13:25:40.570Z,5.70
2023-05-21T13:28:15.132Z,5.35
2023-05-21T13:30:46.295Z,5.70
2023-05-21T13:33:16.860Z,5.30
2023-05-21T13:35:54.944Z,5.28
2023-05-21T13:38:23.433Z,5.15
2023-05-21T13:40:51.893Z,5.30
2023-05-21T13:43:20.349Z,4.70
2023-05-21T13:45:49.977Z,4.60
2023-05-21T13:48:20.026Z,5.10
2023-05-21T13:50:48.795Z,5.05
2023-05-21T13:53:17.737Z,5.50
2023-05-21T13:55:46.218Z,5.30
2023-05-21T13:58:14.675Z,5.38
2023-05-21T14:00:47.398Z,4.82
2023-05-21T14:03:16.036Z,5.00
2023-05-21T14:05:53.617Z,5.15
2023-05-21T14:08:23.793Z,4.97
2023-05-21T14:10:53.482Z,5.22
2023-05-21T14:13:22.294Z,5.55
2023-05-21T14:15:52.878Z,5.28
2023-05-21T14:18:22.458Z,5.50
2023-05-21T14:20:53.419Z,5.60
2023-05-21T14:23:22.149Z,5.88
2023-05-21T14:25:50.698Z,5.10
2023-05-21T14:28:19.298Z,5.45
2023-05-21T14:30:56.232Z,5.18
2023-05-21T14:33:24.680Z,5.30
2023-05-21T14:36:04.387Z,4.93
2023-05-21T14:38:48.069Z,5.07
2023-05-21T14:41:29.432Z,5.78
2023-05-21T14:44:12.789Z,4.95
2023-05-21T14:46:42.323Z,5.30
2023-05-21T14:49:13.580Z,5.18
2023-05-21T14:51:45.387Z,5.10
2023-05-21T14:54:15.147Z,5.00
2023-05-21T14:56:44.790Z,5.13
2023-05-21T14:59:14.408Z,4.57
2023-05-21T15:01:43.317Z,4.65
2023-05-21T15:04:13.482Z,4.95
2023-05-21T15:06:43.652Z,4.78
2023-05-21T15:09:12.367Z,4.78
2023-05-21T15:11:40.979Z,4.80
2023-05-21T15:14:14.565Z,4.97
2023-05-21T15:16:43.161Z,4.90
2023-05-21T15:19:12.583Z,4.50
2023-05-21T15:21:42.280Z,4.78
2023-05-21T15:24:13.349Z,4.72
2023-05-21T15:26:41.909Z,4.80
2023-05-21T15:29:10.448Z,4.78
2023-05-21T15:31:40.588Z,5.03
2023-05-21T15:34:09.309Z,4.93
2023-05-21T15:36:38.063Z,4.90
2023-05-21T15:39:07.029Z,5.13
2023-05-21T15:41:42.280Z,5.45
2023-05-21T15:44:19.337Z,4.85
2023-05-21T15:47:13.438Z,5.57
2023-05-21T15:50:07.578Z,5.43
2023-05-21T15:52:37.742Z,5.07
2023-05-21T15:55:06.591Z,5.50
2023-05-21T15:57:36.654Z,5.65
2023-05-21T16:00:09.548Z,5.75
2023-05-21T16:02:44.267Z,5.28
2023-05-21T16:05:14.952Z,5.93
2023-05-21T16:07:47.528Z,6.07
2023-05-21T16:10:17.966Z,5.75
2023-05-21T16:12:51.903Z,5.90
2023-05-21T16:15:20.788Z,5.45
2023-05-21T16:17:49.842Z,5.75
2023-05-21T16:24:24.816Z,5.80
2023-05-21T16:26:56.821Z,5.68
2023-05-21T16:29:28.972Z,5.50
2023-05-21T16:31:58.623Z,5.68
2023-05-21T16:38:10.476Z,5.40
2023-05-21T16:40:40.457Z,5.40
2023-05-21T16:43:14.544Z,5.32
2023-05-21T16:48:59.869Z,5.45
2023-05-21T16:51:30.764Z,6.22
2023-05-21T16:53:59.447Z,5.32
2023-05-21T16:56:29.563Z,5.45
2023-05-21T16:58:58.259Z,6.18
2023-05-21T17:01:34.139Z,5.47
2023-05-21T17:04:04.361Z,5.70
2023-05-21T17:06:35.570Z,5.78
2023-05-21T17:09:06.914Z,5.85
2023-05-21T17:11:36.093Z,5.30
2023-05-21T17:14:06.938Z,5.53
2023-05-21T17:16:42.946Z,6.10
2023-05-21T17:19:13.582Z,5.70
2023-05-21T17:21:42.417Z,5.70
2023-05-21T17:24:11.314Z,5.57
2023-05-21T17:29:54.304Z,5.82
2023-05-21T17:32:32.624Z,5.70
2023-05-21T17:35:08.682Z,6.32
2023-05-21T17:37:38.248Z,5.82
2023-05-21T17:40:25.416Z,6.40
2023-05-21T17:43:03.326Z,5.75
2023-05-21T17:45:31.900Z,6.10
2023-05-21T17:48:02.775Z,6.10
2023-05-21T17:50:37.928Z,6.30
2023-05-21T17:53:08.375Z,6.32
2023-05-21T17:55:41.353Z,6.50
2023-05-21T17:58:15.950Z,6.55
2023-05-21T18:00:44.658Z,6.55
2023-05-21T18:03:19.294Z,6.45
2023-05-21T18:05:49.379Z,6.47
2023-05-21T18:08:28.429Z,6.35
2023-05-21T18:11:03.421Z,6.25
2023-05-21T18:13:36.311Z,6.30
2023-05-21T18:16:10.407Z,6.20
2023-05-21T18:19:07.702Z,6.82
2023-05-21T18:21:40.327Z,6.05
2023-05-21T18:24:11.874Z,6.55
2023-05-21T18:26:43.510Z,6.35
2023-05-21T18:29:15.191Z,6.43
2023-05-21T18:31:45.590Z,6.45
2023-05-21T18:34:15.646Z,6.68
2023-05-21T18:36:45.797Z,6.50
2023-05-21T18:42:25.138Z,5.90
2023-05-21T18:44:53.790Z,6.30
2023-05-21T18:47:59.347Z,6.55
2023-05-21T18:50:34.407Z,7.00
2023-05-21T18:53:04.902Z,6.93
2023-05-21T18:55:33.932Z,6.45
2023-05-21T18:58:02.986Z,6.28
2023-05-21T19:00:46.079Z,6.85
2023-05-21T19:03:14.721Z,6.88
2023-05-21T19:05:43.539Z,7.20
2023-05-21T19:08:44.798Z,7.60
2023-05-21T19:11:13.449Z,6.82
2023-05-21T19:13:43.262Z,6.95
2023-05-21T19:16:12.059Z,6.97
2023-05-21T19:18:43.382Z,7.00
2023-05-21T19:21:14.615Z,7.18
2023-05-21T19:23:52.477Z,7.32
2023-05-21T19:26:23.870Z,7.75
2023-05-21T19:28:54.796Z,7.85
2023-05-21T19:31:25.472Z,7.47
2023-05-21T19:33:54.432Z,7.18
2023-05-21T19:36:23.473Z,7.22
2023-05-21T19:38:54.649Z,8.00
2023-05-21T19:41:23.670Z,7.35
2023-05-21T19:43:53.531Z,8.77
2023-05-21T19:46:22.316Z,7.82
2023-05-21T19:48:51.034Z,7.72
2023-05-21T19:51:19.637Z,7.80
2023-05-21T19:53:48.334Z,7.70
2023-05-21T19:56:21.913Z,7.60
2023-05-21T19:58:51.160Z,7.63
2023-05-21T20:01:20.221Z,8.23
2023-05-21T20:03:49.755Z,8.10
2023-05-21T20:06:20.740Z,8.57
2023-05-21T20:08:54.746Z,7.70
2023-05-21T20:11:25.104Z,7.72
2023-05-21T20:14:08.102Z,8.63
2023-05-21T20:16:37.108Z,8.35
2023-05-21T20:19:05.991Z,8.45
2023-05-21T20:21:34.940Z,8.43
2023-05-21T20:24:04.105Z,7.85
2023-05-21T20:26:35.256Z,8.65
2023-05-21T20:29:03.884Z,7.53
2023-05-21T20:31:32.479Z,8.27
2023-05-21T20:34:01.072Z,8.07
2023-05-21T20:36:34.943Z,8.57
2023-05-21T20:39:03.748Z,8.65
2023-05-21T20:41:38.844Z,8.20
2023-05-21T20:44:07.726Z,9.35
2023-05-21T20:46:38.630Z,8.18
2023-05-21T20:49:07.576Z,8.40
2023-05-21T20:51:36.337Z,8.70
2023-05-21T20:54:05.031Z,8.20
2023-05-21T20:56:42.281Z,8.32
2023-05-21T20:59:13.097Z,8.80
2023-05-21T21:01:42.634Z,9.38
2023-05-21T21:04:11.421Z,7.95
2023-05-21T21:06:40.669Z,9.27
2023-05-21T21:09:10.647Z,8.80
2023-05-21T21:11:39.199Z,8.55
2023-05-21T21:14:08.876Z,8.48
2023-05-21T21:16:40.133Z,8.48
2023-05-21T21:19:08.960Z,9.52
2023-05-21T21:21:37.652Z,8.77
2023-05-21T21:24:08.044Z,9.15
2023-05-21T21:26:36.465Z,9.82
2023-05-21T21:29:05.028Z,9.18
2023-05-21T21:31:34.089Z,8.95
2023-05-21T21:34:04.304Z,8.80
2023-05-21T21:36:32.794Z,9.02
2023-05-21T21:39:01.347Z,8.32
2023-05-21T21:41:30.518Z,8.57
2023-05-21T21:43:59.288Z,8.95
2023-05-21T21:46:27.908Z,8.68
2023-05-21T21:48:56.471Z,8.70
2023-05-21T21:51:26.452Z,8.43
2023-05-21T21:53:55.154Z,8.23
2023-05-21T21:56:23.751Z,8.48
2023-05-21T21:58:52.197Z,9.57
2023-05-21T22:01:21.073Z,8.80
2023-05-21T22:03:49.756Z,8.20
2023-05-21T22:06:18.255Z,7.57
2023-05-21T22:08:48.698Z,8.05
2023-05-21T22:11:18.804Z,8.15
2023-05-21T22:13:47.505Z,8.20
2023-05-21T22:16:16.526Z,8.00
2023-05-21T22:18:46.363Z,8.65
2023-05-21T22:21:18.538Z,8.80
2023-05-21T22:23:48.664Z,8.80
2023-05-21T22:26:17.383Z,9.05
2023-05-21T22:28:47.285Z,8.63
2023-05-21T22:31:16.437Z,8.55
2023-05-21T22:33:45.046Z,7.88
2023-05-21T22:36:13.513Z,8.73
2023-05-21T22:38:43.561Z,8.70
2023-05-21T22:41:13.858Z,8.50
2023-05-21T22:43:42.380Z,9.63
2023-05-21T22:46:10.967Z,8.98
2023-05-21T22:48:41.969Z,8.75
2023-05-21T22:51:11.335Z,9.45
2023-05-21T22:53:39.894Z,8.48
2023-05-21T22:56:08.597Z,8.32
2023-05-21T22:58:40.807Z,8.55
2023-05-21T23:01:09.296Z,8.63
2023-05-21T23:03:37.697Z,8.13
2023-05-21T23:06:06.285Z,8.82
2023-05-21T23:08:34.849Z,8.45
2023-05-21T23:11:03.625Z,8.50
2023-05-21T23:13:32.144Z,9.13
2023-05-21T23:16:02.133Z,9.48
2023-05-21T23:18:30.605Z,9.32
2023-05-21T23:20:59.187Z,9.77
2023-05-21T23:23:54.753Z,9.35
2023-05-21T23:26:25.676Z,8.43
2023-05-21T23:28:54.217Z,9.10
2023-05-21T23:31:24.059Z,9.13
2023-05-21T23:33:52.745Z,9.02
2023-05-21T23:36:21.299Z,9.27
2023-05-21T23:38:50.231Z,8.65
2023-05-21T23:41:18.811Z,10.57
2023-05-21T23:43:47.296Z,9.57
2023-05-21T23:46:15.791Z,9.60
2023-05-21T23:48:46.896Z,9.85
2023-05-21T23:51:15.626Z,10.75
2023-05-21T23:53:44.089Z,10.63
2023-05-21T23:56:12.493Z,10.57
2023-05-21T23:58:41.019Z,9.90
